搜索
作者 回复/查看 最后发表
Nike Air VaporMax Cheap Sale brands logos NO.i386 josehy4697 2017-7-31 0106 josehy4697 2017-7-31 12:21
Air Max 97 Black purchase once again in 2008 kobe45354 2017-6-18 052 kobe45354 2017-6-18 15:15
Kyrie 3 Gold in Cleat form NO.h652 josehy4697 2017-5-25 046 josehy4697 2017-5-25 15:02
Women adidas NMD R1 seemed to dwindle down NO.B629 josehy4697 2017-4-16 055 josehy4697 2017-4-16 17:10
Cheap 2017 Air Jordan 11 would sit by the heel kobe45354 2017-4-2 057 kobe45354 2017-4-2 13:27
Curry 2.5 Outlet giving us our best look yet kobe45354 2017-3-10 057 kobe45354 2017-3-10 13:21
22383 xiaoyoyo2014 2017-2-2 058 xiaoyoyo2014 2017-2-2 12:15
36899 69ja649jf6w 2017-1-27 053 69ja649jf6w 2017-1-27 03:18
31413 69ja649jf6w 2017-1-24 050 69ja649jf6w 2017-1-24 13:22
17573 xiaoyoyo2014 2017-1-19 050 xiaoyoyo2014 2017-1-19 21:20
Cheap Kobe Bryant Shoes Birmingham Barons NO.P215 josehy4697 2016-11-29 058 josehy4697 2016-11-29 13:40
Air Jordan 3 OKC Home PE bess3566 2016-11-11 061 bess3566 2016-11-11 09:00
Curry 3 Pink will have laser-etching NO.L391 kobe45354 2016-10-28 044 kobe45354 2016-10-28 14:46
Air More Uptempo "OLYMPIC" small accents throughout NO.M388 kobe45354 2016-9-1 070 kobe45354 2016-9-1 16:14
Mizuno Wave Prophecy 5 Royal Blue banned his shoes NO.u983 kobe45354 2016-7-26 094 kobe45354 2016-7-26 11:31
Nike KD 9 "Mic Drop" in Kids sizes NO.t605 josehy4697 2016-7-2 074 josehy4697 2016-7-2 16:42
Nike Chuck Posite White Blue Cavs will try NO.J435 josehy4697 2016-6-4 070 josehy4697 2016-6-4 14:21
Air Yeezy 2 Red October stores nationwide now NO.B351 josehy4697 2016-5-31 065 josehy4697 2016-5-31 09:16
46623 xiaoyoyo2014 2016-5-26 067 xiaoyoyo2014 2016-5-26 08:48
Air Max Thea White is inspired by new NO.3452 josehy4697 2016-5-22 068 josehy4697 2016-5-22 17:54

快速发帖

还可输入 80 个字符
你需要登录后才可以发帖 登录 | 我要加入

Archiver|Banner International Certification Technology Service Co, LTD ( 冀ICP备10205460号-1 )

GMT+8, 2018-7-22 20:29 , Processed in 0.024383 second(s), 6 queries .

Powered by D_i_s_c_u_z_!

© 2001-2010 mybaina.com